Jork Reliance — V2CL2 — position and weather

sailwx.info

Track history (hours):
 
Tides and Currents Weather Stations Pressure Air Temp Water Temp Dewpoint Dewpoint Depression Visibility Wind Speed Wind Dir Waves Ship Positions

Jork Reliance

Last reported at 2015-Aug-28 06:34 UTC. Time now 2015-Aug-28 07:34 UTC.
Position N 51°23' E 002°57'.

Length 141 m; draft 6.1 m.

Type: Ship (hazmat cat A). MMSI: 305033000.

Date/timePositionNaut miles runAvg speedWind from/ knotsBaromVisibWave heightAir tempDewpointWater temp
2015-Aug-28 06:34N 51°23' E 002°57'1211.6
2015-Aug-28 05:33N 51°24' E 002°38'1 0.7
2015-Aug-28 04:32N 51°25' E 002°38'0 0.1
2015-Aug-28 03:32N 51°25' E 002°38'0 0.0
2015-Aug-28 02:32N 51°25' E 002°38'0 0.0
2015-Aug-28 01:32N 51°25' E 002°38'0 0.0
2015-Aug-28 00:32N 51°25' E 002°38'0 0.0
2015-Aug-27 23:32N 51°25' E 002°38'0 0.0
2015-Aug-27 22:32N 51°25' E 002°38'7 7.4
2015-Aug-27 21:32N 51°22' E 002°28'1717.0
2015-Aug-27 20:33N 51°13' E 002°05'1616.3
2015-Aug-27 19:33N 51°04' E 001°44'1414.2
2015-Aug-27 18:33N 50°53' E 001°29'16412.4
2015-Aug-27 05:24N 50°10' W 002°40'1315.0
2015-Aug-27 04:33N 50°08' W 002°59'1514.5
2015-Aug-27 03:33N 50°05' W 003°22'142 8.3
2015-Aug-26 10:24N 51°49' W 005°56'1113.4
2015-Aug-26 09:34N 52°00' W 005°55'1313.0
2015-Aug-26 08:34N 52°13' W 005°54'1212.4
2015-Aug-26 07:34N 52°26' W 005°54'1312.0
2015-Aug-26 06:30N 52°38' W 005°53'4 0.1
2015-Aug-24 20:32N 52°43' W 005°52'1110.9
2015-Aug-24 19:33N 52°32' W 005°51'1111.1
2015-Aug-24 18:33N 52°21' W 005°50'1211.6
2015-Aug-24 17:33N 52°09' W 005°48'149 9.3
2015-Aug-24 01:31N 50°05' W 003°39'1313.1
2015-Aug-24 00:33N 50°07' W 003°20'1313.0
2015-Aug-23 23:33N 50°09' W 003°00'1313.2
2015-Aug-23 22:33N 50°12' W 002°40'1413.7
2015-Aug-23 21:33N 50°15' W 002°19'1514.4
2015-Aug-23 20:31N 50°18' W 001°56'2015.0
2015-Aug-23 19:12N 50°22' W 001°26'1315.0
2015-Aug-23 18:20N 50°24' W 001°06'1215.1
2015-Aug-23 17:33N 50°27' W 000°48'3014.1
2015-Aug-23 15:24N 50°33' W 000°01'1113.2
2015-Aug-23 14:33N 50°35' E 000°16'1212.2
2015-Aug-23 13:33N 50°39' E 000°34'1211.8
2015-Aug-23 12:34N 50°45' E 000°50'1312.5
2015-Aug-23 11:33N 50°53' E 001°06'1313.3
2015-Aug-23 10:34N 51°01' E 001°22'1312.9
2015-Aug-23 09:34N 51°10' E 001°37'1212.0
2015-Aug-23 08:34N 51°19' E 001°49'1211.6
2015-Aug-23 07:33N 51°29' E 001°58'1111.4
2015-Aug-23 06:33N 51°37' E 002°12'1111.4
2015-Aug-23 05:33N 51°45' E 002°25'1211.9
2015-Aug-23 04:34N 51°54' E 002°38'1212.3
2015-Aug-23 03:33N 52°01' E 002°54'1313.1
2015-Aug-23 02:33N 52°02' E 003°16'1313.5
2015-Aug-23 01:33N 52°03' E 003°38'1212.2
2015-Aug-23 00:33N 52°02' E 003°57'1414.1
2015-Aug-22 23:33N 51°54' E 004°17'5 4.9
2015-Aug-22 22:31N 51°53' E 004°25'0 0.0
2015-Aug-22 21:31N 51°53' E 004°25'0 0.0
2015-Aug-22 20:31N 51°53' E 004°25'0 0.0
2015-Aug-22 19:31N 51°53' E 004°25'0 0.0
2015-Aug-22 18:31N 51°53' E 004°25'0 0.0
2015-Aug-22 16:31N 51°53' E 004°25'0 0.0
2015-Aug-22 15:31N 51°53' E 004°25'0 0.0
2015-Aug-22 14:31N 51°53' E 004°25'0 0.0
2015-Aug-22 13:31N 51°53' E 004°25'0 0.0
2015-Aug-22 12:31N 51°53' E 004°25'4 4.0
2015-Aug-22 11:33N 51°54' E 004°18'1211.7
2015-Aug-22 10:33N 51°59' E 004°02'1313.0
2015-Aug-22 09:34N 51°58' E 003°41'1111.1
2015-Aug-22 08:33N 51°55' E 003°24'1212.2
2015-Aug-22 07:33N 51°43' E 003°17'1414.4
2015-Aug-22 06:33N 51°30' E 003°28'1313.3
2015-Aug-22 05:34N 51°22' E 003°45'1010.5
2015-Aug-22 04:34N 51°26' E 004°00'9 9.4
2015-Aug-22 03:34N 51°22' E 004°13'2 2.3
2015-Aug-22 02:33N 51°20' E 004°16'0 0.0
2015-Aug-22 01:31N 51°20' E 004°16'0 0.0
2015-Aug-22 00:31N 51°20' E 004°16'0 0.0
2015-Aug-21 23:32N 51°20' E 004°16'0 0.0
2015-Aug-21 22:33N 51°20' E 004°16'0 0.0
2015-Aug-21 21:29N 51°20' E 004°16'0 0.0
2015-Aug-21 20:28N 51°20' E 004°16'0 0.0
2015-Aug-21 19:33N 51°20' E 004°16'0 0.0
2015-Aug-21 18:28N 51°20' E 004°16'0 0.0
2015-Aug-21 17:34N 51°20' E 004°16'0 0.0
2015-Aug-21 16:31N 51°20' E 004°16'0 0.0
2015-Aug-21 15:30N 51°20' E 004°16'0 0.0
2015-Aug-21 14:33N 51°20' E 004°16'0 0.0
2015-Aug-21 13:31N 51°20' E 004°16'0 0.0
2015-Aug-21 12:34N 51°20' E 004°16'0 0.0
2015-Aug-21 11:33N 51°20' E 004°16'7 7.2
2015-Aug-21 10:34N 51°22' E 004°05'8 8.2
2015-Aug-21 09:33N 51°21' E 003°52'1211.6
2015-Aug-21 08:34N 51°25' E 003°35'1212.4
2015-Aug-21 07:33N 51°24' E 003°15'1414.2
2015-Aug-21 06:33N 51°22' E 002°53'8 8.3
2015-Aug-21 05:33N 51°24' E 002°40'1 0.5
2015-Aug-21 04:32N 51°25' E 002°40'0 0.0
2015-Aug-21 03:29N 51°25' E 002°40'0 0.0
2015-Aug-21 02:32N 51°25' E 002°40'0 0.2
2015-Aug-21 01:32N 51°25' E 002°40'0 0.0
2015-Aug-21 00:32N 51°25' E 002°40'0 0.0
2015-Aug-20 23:32N 51°25' E 002°40'0 0.0
2015-Aug-20 22:32N 51°25' E 002°40'0 0.1
2015-Aug-20 21:32N 51°25' E 002°40'0 0.1
2015-Aug-20 20:32N 51°25' E 002°40'0 0.0
2015-Aug-20 19:32N 51°25' E 002°40'1 0.9
2015-Aug-20 18:34N 51°24' E 002°39'1413.8
2015-Aug-20 17:33N 51°19' E 002°19'1414.3
2015-Aug-20 16:33N 51°11' E 001°59'1515.5
2015-Aug-20 15:33N 51°02' E 001°39'1615.9
2015-Aug-20 14:34N 50°50' E 001°23'1614.4
2015-Aug-20 13:28N 50°37' E 001°10'1614.4
2015-Aug-20 12:21N 50°29' E 000°48'1815.2
2015-Aug-20 11:11N 50°23' E 000°22'10911.1
2015-Aug-20 01:21N 50°12' W 002°27'1113.4
2015-Aug-20 00:33N 50°10' W 002°44'1413.6
2015-Aug-19 23:33N 50°08' W 003°05'1513.8
2015-Aug-19 22:26N 50°05' W 003°28'139 8.2
2015-Aug-19 05:31N 51°49' W 005°54'1414.3
2015-Aug-19 04:33N 52°03' W 005°53'1514.9
2015-Aug-19 03:33N 52°18' W 005°53'1514.6
2015-Aug-19 02:33N 52°33' W 005°53'  
Track history (hours):
 
Tides and Currents Weather Stations Pressure Air Temp Water Temp Dewpoint Dewpoint Depression Visibility Wind Speed Wind Dir Waves Ship Positions

Jork Reliance

Last reported at 2015-Aug-28 06:34 UTC. Time now 2015-Aug-28 07:34 UTC.
Position N 51°23' E 002°57'.

Length 141 m; draft 6.1 m.

Type: Ship (hazmat cat A). MMSI: 305033000.

Date/timePositionNaut miles runAvg speedWind from/ knotsBaromVisibWave heightAir tempDewpointWater temp
2015-Aug-28 06:34N 51°23' E 002°57'1211.6
2015-Aug-28 05:33N 51°24' E 002°38'1 0.7
2015-Aug-28 04:32N 51°25' E 002°38'0 0.1
2015-Aug-28 03:32N 51°25' E 002°38'0 0.0
2015-Aug-28 02:32N 51°25' E 002°38'0 0.0
2015-Aug-28 01:32N 51°25' E 002°38'0 0.0
2015-Aug-28 00:32N 51°25' E 002°38'0 0.0
2015-Aug-27 23:32N 51°25' E 002°38'0 0.0
2015-Aug-27 22:32N 51°25' E 002°38'7 7.4
2015-Aug-27 21:32N 51°22' E 002°28'1717.0
2015-Aug-27 20:33N 51°13' E 002°05'1616.3
2015-Aug-27 19:33N 51°04' E 001°44'1414.2
2015-Aug-27 18:33N 50°53' E 001°29'16412.4
2015-Aug-27 05:24N 50°10' W 002°40'1315.0
2015-Aug-27 04:33N 50°08' W 002°59'1514.5
2015-Aug-27 03:33N 50°05' W 003°22'142 8.3
2015-Aug-26 10:24N 51°49' W 005°56'1113.4
2015-Aug-26 09:34N 52°00' W 005°55'1313.0
2015-Aug-26 08:34N 52°13' W 005°54'1212.4
2015-Aug-26 07:34N 52°26' W 005°54'1312.0
2015-Aug-26 06:30N 52°38' W 005°53'4 0.1
2015-Aug-24 20:32N 52°43' W 005°52'1110.9
2015-Aug-24 19:33N 52°32' W 005°51'1111.1
2015-Aug-24 18:33N 52°21' W 005°50'1211.6
2015-Aug-24 17:33N 52°09' W 005°48'149 9.3
2015-Aug-24 01:31N 50°05' W 003°39'1313.1
2015-Aug-24 00:33N 50°07' W 003°20'1313.0
2015-Aug-23 23:33N 50°09' W 003°00'1313.2
2015-Aug-23 22:33N 50°12' W 002°40'1413.7
2015-Aug-23 21:33N 50°15' W 002°19'1514.4
2015-Aug-23 20:31N 50°18' W 001°56'2015.0
2015-Aug-23 19:12N 50°22' W 001°26'1315.0
2015-Aug-23 18:20N 50°24' W 001°06'1215.1
2015-Aug-23 17:33N 50°27' W 000°48'3014.1
2015-Aug-23 15:24N 50°33' W 000°01'1113.2
2015-Aug-23 14:33N 50°35' E 000°16'1212.2
2015-Aug-23 13:33N 50°39' E 000°34'1211.8
2015-Aug-23 12:34N 50°45' E 000°50'1312.5
2015-Aug-23 11:33N 50°53' E 001°06'1313.3
2015-Aug-23 10:34N 51°01' E 001°22'1312.9
2015-Aug-23 09:34N 51°10' E 001°37'1212.0
2015-Aug-23 08:34N 51°19' E 001°49'1211.6
2015-Aug-23 07:33N 51°29' E 001°58'1111.4
2015-Aug-23 06:33N 51°37' E 002°12'1111.4
2015-Aug-23 05:33N 51°45' E 002°25'1211.9
2015-Aug-23 04:34N 51°54' E 002°38'1212.3
2015-Aug-23 03:33N 52°01' E 002°54'1313.1
2015-Aug-23 02:33N 52°02' E 003°16'1313.5
2015-Aug-23 01:33N 52°03' E 003°38'1212.2
2015-Aug-23 00:33N 52°02' E 003°57'1414.1
2015-Aug-22 23:33N 51°54' E 004°17'5 4.9
2015-Aug-22 22:31N 51°53' E 004°25'0 0.0
2015-Aug-22 21:31N 51°53' E 004°25'0 0.0
2015-Aug-22 20:31N 51°53' E 004°25'0 0.0
2015-Aug-22 19:31N 51°53' E 004°25'0 0.0
2015-Aug-22 18:31N 51°53' E 004°25'0 0.0
2015-Aug-22 16:31N 51°53' E 004°25'0 0.0
2015-Aug-22 15:31N 51°53' E 004°25'0 0.0
2015-Aug-22 14:31N 51°53' E 004°25'0 0.0
2015-Aug-22 13:31N 51°53' E 004°25'0 0.0
2015-Aug-22 12:31N 51°53' E 004°25'4 4.0
2015-Aug-22 11:33N 51°54' E 004°18'1211.7
2015-Aug-22 10:33N 51°59' E 004°02'1313.0
2015-Aug-22 09:34N 51°58' E 003°41'1111.1
2015-Aug-22 08:33N 51°55' E 003°24'1212.2
2015-Aug-22 07:33N 51°43' E 003°17'1414.4
2015-Aug-22 06:33N 51°30' E 003°28'1313.3
2015-Aug-22 05:34N 51°22' E 003°45'1010.5
2015-Aug-22 04:34N 51°26' E 004°00'9 9.4
2015-Aug-22 03:34N 51°22' E 004°13'2 2.3
2015-Aug-22 02:33N 51°20' E 004°16'0 0.0
2015-Aug-22 01:31N 51°20' E 004°16'0 0.0
2015-Aug-22 00:31N 51°20' E 004°16'0 0.0
2015-Aug-21 23:32N 51°20' E 004°16'0 0.0
2015-Aug-21 22:33N 51°20' E 004°16'0 0.0
2015-Aug-21 21:29N 51°20' E 004°16'0 0.0
2015-Aug-21 20:28N 51°20' E 004°16'0 0.0
2015-Aug-21 19:33N 51°20' E 004°16'0 0.0
2015-Aug-21 18:28N 51°20' E 004°16'0 0.0
2015-Aug-21 17:34N 51°20' E 004°16'0 0.0
2015-Aug-21 16:31N 51°20' E 004°16'0 0.0
2015-Aug-21 15:30N 51°20' E 004°16'0 0.0
2015-Aug-21 14:33N 51°20' E 004°16'0 0.0
2015-Aug-21 13:31N 51°20' E 004°16'0 0.0
2015-Aug-21 12:34N 51°20' E 004°16'0 0.0
2015-Aug-21 11:33N 51°20' E 004°16'7 7.2
2015-Aug-21 10:34N 51°22' E 004°05'8 8.2
2015-Aug-21 09:33N 51°21' E 003°52'1211.6
2015-Aug-21 08:34N 51°25' E 003°35'1212.4
2015-Aug-21 07:33N 51°24' E 003°15'1414.2
2015-Aug-21 06:33N 51°22' E 002°53'8 8.3
2015-Aug-21 05:33N 51°24' E 002°40'1 0.5
2015-Aug-21 04:32N 51°25' E 002°40'0 0.0
2015-Aug-21 03:29N 51°25' E 002°40'0 0.0
2015-Aug-21 02:32N 51°25' E 002°40'0 0.2
2015-Aug-21 01:32N 51°25' E 002°40'0 0.0
2015-Aug-21 00:32N 51°25' E 002°40'0 0.0
2015-Aug-20 23:32N 51°25' E 002°40'0 0.0
2015-Aug-20 22:32N 51°25' E 002°40'0 0.1
2015-Aug-20 21:32N 51°25' E 002°40'0 0.1
2015-Aug-20 20:32N 51°25' E 002°40'0 0.0
2015-Aug-20 19:32N 51°25' E 002°40'1 0.9
2015-Aug-20 18:34N 51°24' E 002°39'1413.8
2015-Aug-20 17:33N 51°19' E 002°19'1414.3
2015-Aug-20 16:33N 51°11' E 001°59'1515.5
2015-Aug-20 15:33N 51°02' E 001°39'1615.9
2015-Aug-20 14:34N 50°50' E 001°23'1614.4
2015-Aug-20 13:28N 50°37' E 001°10'1614.4
2015-Aug-20 12:21N 50°29' E 000°48'1815.2
2015-Aug-20 11:11N 50°23' E 000°22'10911.1
2015-Aug-20 01:21N 50°12' W 002°27'1113.4
2015-Aug-20 00:33N 50°10' W 002°44'1413.6
2015-Aug-19 23:33N 50°08' W 003°05'1513.8
2015-Aug-19 22:26N 50°05' W 003°28'139 8.2
2015-Aug-19 05:31N 51°49' W 005°54'1414.3
2015-Aug-19 04:33N 52°03' W 005°53'1514.9
2015-Aug-19 03:33N 52°18' W 005°53'1514.6
2015-Aug-19 02:33N 52°33' W 005°53'  

Dump ship's entire track history